Impacts TAF Board INFO
FOR SITUATIONAL AWARENESS. NOT TO BE USED FOR FLIGHT PLANNING PURPOSES.
IDs:

KPIT - Pittsburgh Intl, PA, US

Issued at 0520 UTC 16 Jan 2018
Updated at 0721 UTC 16 Jan 2018
Potential Impact None Slight Moderate High
Time0651Z 16/08Z 16/09Z 16/10Z 16/11Z 16/12Z 16/13Z 16/14Z 16/15Z 16/16Z 16/17Z 16/18Z 16/19Z 16/20Z>>
Type OBS PRVL
  [TEMP]  
PRVL
  [TEMP]  
PRVL PRVL PRVL PRVL PRVL PRVL PRVL PRVL PRVL PRVL PRVL
VIS 6 3
  [2]  
3
  [2]  
6 6 6 6 6 6 6 6 6 6 6
CIG 47 25
  [15]  
25
  [15]  
8 8 8 8 8 8 8 8 15 15 15
Cover OVC OVC
  [OVC]  
OVC
  [OVC]  
OVC OVC OVC OVC OVC OVC OVC OVC OVC OVC OVC
FltCat VFR MVFR
  [IFR]  
MVFR
  [IFR]  
IFR IFR IFR IFR IFR IFR IFR IFR MVFR MVFR MVFR
WX -SN BR -SN
  [-SN]  
-SN
  [-SN]  
-SN -SN -SN -SN -SN -SN -SN -SN -SN -SN -SN
WDir 210 210
[210]
210
[210]
240 240 240 240 240 240 240 240 240 240 240
WSpd 5 6
  [6]  
6
  [6]  
5 5 5 5 5 5 5 5 7 7 7
WGst -- --
  [--]  
--
  [--]  
-- -- -- -- -- -- -- -- -- -- --

Raw TAF
KPIT 160520Z 1606/1712 21006KT 3SM -SN OVC025
  TEMPO 1606/1610 2SM -SN OVC015
  FM161000 24005KT 6SM -SN OVC008
  FM161800 24007KT 6SM -SN OVC015
  FM170100 28010KT P6SM OVC025


Raw METAR
KPIT 160651Z 21005KT 6SM -SN BR OVC047 M03/M04 A3029 RMK AO2 SLP281 P0001 T10331044
KPIT 160601Z COR 20003KT 4SM -SN BR BKN031 OVC050 M04/M04 A3028 RMK AO2 P0000 T10391044
KPIT 160551Z 20004KT 2SM -SN BKN028 BKN035 OVC049 M03/M04 A3028 RMK AO2 SLP279 P0001 60002 I6000 T10331044 51003
KPIT 160520Z 00000KT 2SM -SN BKN021 OVC028 M04/M04 A3028 RMK AO2 P0001 T10391044
KPIT 160506Z 16003KT 3SM -SN BKN027 OVC036 M04/M05 A3027 RMK AO2 P0000 T10441050
KPIT 160451Z 00000KT 4SM -SN SCT027 OVC037 M04/M05 A3028 RMK AO2 SNB42 SLP279 P0000 I1000 T10441050 410391150

METAR Board
Radar Display
Forecast Discussion

FOR SITUATIONAL AWARENESS. NOT TO BE USED FOR FLIGHT PLANNING PURPOSES.